createdAt,value
2023-02-15T00:01:12.360Z,23.80
2023-02-15T00:03:42.552Z,22.10
2023-02-15T00:06:12.029Z,21.40
2023-02-15T00:08:42.387Z,19.00
2023-02-15T00:11:38.329Z,20.23
2023-02-15T00:14:18.071Z,21.40
2023-02-15T00:16:52.026Z,23.23
2023-02-15T00:19:22.719Z,23.10
2023-02-15T00:21:50.966Z,21.80
2023-02-15T00:24:21.134Z,22.10
2023-02-15T00:26:51.544Z,22.00
2023-02-15T00:29:21.941Z,20.83
2023-02-15T00:31:53.304Z,20.88
2023-02-15T00:34:28.252Z,23.42
2023-02-15T00:37:01.174Z,22.40
2023-02-15T00:39:31.242Z,23.17
2023-02-15T00:42:01.322Z,23.42
2023-02-15T00:44:31.374Z,22.17
2023-02-15T00:47:01.428Z,22.80
2023-02-15T00:49:31.548Z,22.65
2023-02-15T00:52:01.654Z,21.17
2023-02-15T00:54:31.798Z,20.27
2023-02-15T00:57:02.345Z,20.73
2023-02-15T00:59:32.363Z,22.33
2023-02-15T01:02:02.654Z,22.90
2023-02-15T01:04:32.824Z,22.35
2023-02-15T01:07:04.639Z,21.77
2023-02-15T01:09:34.713Z,21.88
2023-02-15T01:12:05.720Z,22.42
2023-02-15T01:14:36.046Z,23.83
2023-02-15T01:17:06.264Z,23.48
2023-02-15T01:19:36.288Z,23.25
2023-02-15T01:22:06.624Z,23.48
2023-02-15T01:24:34.777Z,24.55
2023-02-15T01:27:03.178Z,22.50
2023-02-15T01:29:31.669Z,22.63
2023-02-15T01:32:00.220Z,21.80
2023-02-15T01:34:31.563Z,24.63
2023-02-15T01:37:01.998Z,23.23
2023-02-15T01:39:32.020Z,22.00
2023-02-15T01:42:02.031Z,23.05
2023-02-15T01:45:00.033Z,21.95
2023-02-15T01:47:53.643Z,23.10
2023-02-15T01:50:56.845Z,24.63
2023-02-15T01:53:43.937Z,23.42
2023-02-15T01:56:25.910Z,24.17
2023-02-15T01:59:09.202Z,22.35
2023-02-15T02:01:36.955Z,24.60
2023-02-15T02:04:26.671Z,24.70
2023-02-15T02:07:01.097Z,22.70
2023-02-15T02:09:31.780Z,24.42
2023-02-15T02:12:03.360Z,23.88
2023-02-15T02:14:34.118Z,24.10
2023-02-15T02:17:47.577Z,23.30
2023-02-15T02:21:32.593Z,23.95
2023-02-15T02:25:04.149Z,23.33
2023-02-15T02:27:41.022Z,25.63
2023-02-15T02:30:33.441Z,24.13
2023-02-15T02:33:34.343Z,23.95
2023-02-15T02:36:47.268Z,24.52
2023-02-15T02:40:10.235Z,27.58
2023-02-15T02:43:01.322Z,30.30
2023-02-15T02:45:47.695Z,30.30
2023-02-15T02:48:26.387Z,33.53
2023-02-15T02:50:55.739Z,35.42
2023-02-15T02:53:31.374Z,35.25
2023-02-15T02:56:38.777Z,38.08
2023-02-15T02:59:25.591Z,34.28
2023-02-15T03:02:15.173Z,35.30
2023-02-15T03:04:59.617Z,36.63
2023-02-15T03:07:34.148Z,36.30
2023-02-15T03:10:10.617Z,32.92
2023-02-15T03:12:42.759Z,35.50
2023-02-15T03:15:50.661Z,36.92
2023-02-15T03:18:34.941Z,38.80
2023-02-15T03:21:23.083Z,35.47
2023-02-15T03:24:11.904Z,38.23
2023-02-15T03:26:49.159Z,37.28
2023-02-15T03:29:28.488Z,36.22
2023-02-15T03:32:08.129Z,35.47
2023-02-15T03:34:38.893Z,36.05
2023-02-15T03:37:40.235Z,35.83
2023-02-15T03:40:51.184Z,36.08
2023-02-15T03:44:16.144Z,36.95
2023-02-15T03:47:18.316Z,35.97
2023-02-15T03:50:31.644Z,37.78
2023-02-15T03:53:10.864Z,38.20
2023-02-15T03:55:41.198Z,36.55
2023-02-15T03:58:29.898Z,36.80
2023-02-15T04:01:42.558Z,37.47
2023-02-15T04:04:25.614Z,36.38
2023-02-15T04:06:55.774Z,37.45
2023-02-15T04:09:44.563Z,39.13
2023-02-15T04:12:19.393Z,39.60
2023-02-15T04:15:08.360Z,35.88
2023-02-15T04:17:39.532Z,35.17
2023-02-15T04:20:28.845Z,34.63
2023-02-15T04:23:17.562Z,33.90
2023-02-15T04:25:47.436Z,35.28
2023-02-15T04:28:17.180Z,36.22
2023-02-15T04:30:48.086Z,37.05
2023-02-15T04:33:18.158Z,36.35
2023-02-15T04:35:47.845Z,37.20
2023-02-15T04:38:17.680Z,37.17
2023-02-15T04:40:52.191Z,36.38
2023-02-15T04:43:21.127Z,35.22
2023-02-15T04:45:51.673Z,33.20
2023-02-15T04:48:21.858Z,34.38
2023-02-15T04:50:51.486Z,33.90
2023-02-15T04:53:21.252Z,34.95
2023-02-15T04:55:51.294Z,33.53
2023-02-15T04:58:21.298Z,35.92
2023-02-15T05:00:51.203Z,34.95
2023-02-15T05:03:19.769Z,37.05
2023-02-15T05:05:48.198Z,41.85
2023-02-15T05:08:16.708Z,39.47
2023-02-15T05:10:45.078Z,38.17
2023-02-15T05:13:13.617Z,37.45
2023-02-15T05:15:44.637Z,41.17
2023-02-15T05:18:13.521Z,36.63
2023-02-15T05:20:42.103Z,39.63
2023-02-15T05:23:10.855Z,36.88
2023-02-15T05:25:58.087Z,39.72
2023-02-15T05:28:29.075Z,35.28
2023-02-15T05:31:18.897Z,35.10
2023-02-15T05:33:48.435Z,33.78
2023-02-15T05:36:15.749Z,36.63
2023-02-15T05:38:45.689Z,37.53
2023-02-15T05:41:15.737Z,34.95
2023-02-15T05:43:45.600Z,32.65
2023-02-15T05:46:15.354Z,34.30
2023-02-15T05:48:45.196Z,36.00
2023-02-15T05:51:16.903Z,36.40
2023-02-15T05:53:46.239Z,33.92
2023-02-15T05:56:15.935Z,34.08
2023-02-15T05:58:45.641Z,33.50
2023-02-15T06:01:20.131Z,34.38
2023-02-15T06:03:50.071Z,32.40
2023-02-15T06:06:18.632Z,33.88
2023-02-15T06:08:46.773Z,33.60
2023-02-15T06:11:15.218Z,35.33
2023-02-15T06:13:44.534Z,34.05
2023-02-15T06:16:12.124Z,32.50
2023-02-15T06:18:40.699Z,32.10
2023-02-15T06:21:08.833Z,33.53
2023-02-15T06:23:37.280Z,30.25
2023-02-15T06:26:05.725Z,30.98
2023-02-15T06:28:34.159Z,34.55
2023-02-15T06:31:02.563Z,32.28
2023-02-15T06:33:34.995Z,31.75
2023-02-15T06:36:05.833Z,33.33
2023-02-15T06:38:35.896Z,29.90
2023-02-15T06:41:06.228Z,32.70
2023-02-15T06:43:36.334Z,28.98
2023-02-15T06:46:06.412Z,34.85
2023-02-15T06:48:36.658Z,31.35
2023-02-15T06:51:06.799Z,32.60
2023-02-15T06:53:37.078Z,33.40
2023-02-15T06:56:10.205Z,28.58
2023-02-15T06:58:42.761Z,33.83
2023-02-15T07:01:13.402Z,29.80
2023-02-15T07:03:43.445Z,30.45
2023-02-15T07:06:13.763Z,31.95
2023-02-15T07:08:43.872Z,30.70
2023-02-15T07:11:32.370Z,29.75
2023-02-15T07:14:02.473Z,29.50
2023-02-15T07:16:32.539Z,30.85
2023-02-15T07:19:03.039Z,29.75
2023-02-15T07:21:33.060Z,31.13
2023-02-15T07:24:02.520Z,29.48
2023-02-15T07:26:33.968Z,29.83
2023-02-15T07:29:01.357Z,30.20
2023-02-15T07:31:29.839Z,26.98
2023-02-15T07:33:57.969Z,30.73
2023-02-15T07:36:26.417Z,29.02
2023-02-15T07:38:54.838Z,28.60
2023-02-15T07:41:24.633Z,30.48
2023-02-15T07:43:51.735Z,28.55
2023-02-15T07:46:21.912Z,28.73
2023-02-15T07:48:50.694Z,29.17
2023-02-15T07:51:19.075Z,29.17
2023-02-15T07:53:48.257Z,31.23
2023-02-15T07:56:16.708Z,29.70
2023-02-15T07:58:53.771Z,28.88
2023-02-15T08:01:37.217Z,29.40
2023-02-15T08:04:08.874Z,27.50
2023-02-15T08:06:38.503Z,28.77
2023-02-15T08:09:11.473Z,31.70
2023-02-15T08:11:43.843Z,29.48
2023-02-15T08:14:21.502Z,28.13
2023-02-15T08:16:58.530Z,30.70
2023-02-15T08:19:32.867Z,28.67
2023-02-15T08:22:07.336Z,31.77
2023-02-15T08:24:38.348Z,27.67
2023-02-15T08:27:10.437Z,29.45
2023-02-15T08:29:42.240Z,29.00
2023-02-15T08:32:13.874Z,29.75
2023-02-15T08:34:43.242Z,30.38
2023-02-15T08:37:11.876Z,29.35
2023-02-15T08:42:14.122Z,26.65
2023-02-15T08:44:41.200Z,27.90
2023-02-15T08:47:10.907Z,28.42
2023-02-15T08:49:40.705Z,29.05
2023-02-15T08:52:10.482Z,28.60
2023-02-15T08:54:40.323Z,30.65
2023-02-15T08:57:11.382Z,29.23
2023-02-15T08:59:40.710Z,29.70
2023-02-15T09:02:12.338Z,27.67
2023-02-15T09:04:41.647Z,29.75
2023-02-15T09:07:11.390Z,32.17
2023-02-15T09:09:41.088Z,29.23
2023-02-15T09:12:18.405Z,30.67
2023-02-15T09:14:45.790Z,29.48
2023-02-15T09:17:15.915Z,30.95
2023-02-15T09:19:43.239Z,29.98
2023-02-15T09:22:12.879Z,32.30
2023-02-15T09:24:42.721Z,30.10
2023-02-15T09:27:12.688Z,31.83
2023-02-15T09:29:42.427Z,29.98
2023-02-15T09:32:16.493Z,32.63
2023-02-15T09:34:44.665Z,31.48
2023-02-15T09:37:14.632Z,32.47
2023-02-15T09:39:45.339Z,31.75
2023-02-15T09:42:37.494Z,31.33
2023-02-15T09:45:19.084Z,32.05
2023-02-15T09:48:22.442Z,32.45
2023-02-15T09:51:37.812Z,28.13
2023-02-15T09:54:47.764Z,31.95
2023-02-15T09:58:19.714Z,29.85
2023-02-15T10:04:16.612Z,29.88
2023-02-15T10:07:36.639Z,28.10
2023-02-15T10:10:46.101Z,29.98
2023-02-15T10:13:55.474Z,31.40
2023-02-15T10:17:09.255Z,30.52
2023-02-15T10:20:23.917Z,30.48
2023-02-15T10:23:23.733Z,31.77
2023-02-15T10:26:22.157Z,27.95
2023-02-15T10:28:56.459Z,29.42
2023-02-15T10:32:30.448Z,31.17
2023-02-15T10:35:08.429Z,28.58
2023-02-15T10:38:03.640Z,30.75
2023-02-15T10:41:05.155Z,30.00
2023-02-15T10:44:29.412Z,30.20
2023-02-15T10:48:13.429Z,30.48
2023-02-15T10:50:59.141Z,29.25
2023-02-15T10:53:59.570Z,29.73
2023-02-15T10:57:10.908Z,30.98
2023-02-15T11:00:30.064Z,28.67
2023-02-15T11:03:41.797Z,28.60
2023-02-15T11:06:23.361Z,29.65
2023-02-15T11:09:05.907Z,27.80
2023-02-15T11:11:49.041Z,27.95
2023-02-15T11:14:55.217Z,29.10
2023-02-15T11:17:44.505Z,28.23
2023-02-15T11:20:40.059Z,26.77
2023-02-15T11:23:19.330Z,29.92
2023-02-15T11:26:05.874Z,29.40
2023-02-15T11:28:56.173Z,28.23
2023-02-15T11:34:33.255Z,29.20
2023-02-15T11:37:19.247Z,26.17
2023-02-15T11:39:55.724Z,28.25
2023-02-15T11:42:30.458Z,27.15
2023-02-15T11:45:29.892Z,27.30
2023-02-15T11:48:09.764Z,26.42
2023-02-15T11:50:41.957Z,26.88
2023-02-15T11:53:22.545Z,26.38
2023-02-15T11:55:52.692Z,24.42
2023-02-15T11:59:25.931Z,26.38
2023-02-15T12:01:56.080Z,24.58
2023-02-15T12:04:45.326Z,24.98
2023-02-15T12:07:27.502Z,24.58
2023-02-15T12:10:41.162Z,24.48
2023-02-15T12:13:21.251Z,22.00
2023-02-15T12:16:06.981Z,25.15
2023-02-15T12:18:48.022Z,24.27
2023-02-15T12:21:43.370Z,25.40
2023-02-15T12:24:33.488Z,23.95
2023-02-15T12:27:31.517Z,25.10
2023-02-15T12:30:22.736Z,23.23
2023-02-15T12:33:37.199Z,24.42
2023-02-15T12:36:46.773Z,20.45
2023-02-15T12:39:23.238Z,18.48
2023-02-15T12:41:57.058Z,18.92
2023-02-15T12:44:35.336Z,21.20
2023-02-15T12:47:17.307Z,21.58
2023-02-15T12:50:18.286Z,21.95
2023-02-15T12:53:06.398Z,21.70
2023-02-15T12:55:37.608Z,17.90
2023-02-15T12:58:31.889Z,16.60
2023-02-15T13:01:11.936Z,17.58
2023-02-15T13:04:02.384Z,15.90
2023-02-15T13:06:36.845Z,17.20
2023-02-15T13:09:24.743Z,15.27
2023-02-15T13:11:54.158Z,15.23
2023-02-15T13:14:33.605Z,15.80
2023-02-15T13:17:08.704Z,15.35
2023-02-15T13:19:49.011Z,16.45
2023-02-15T13:22:34.263Z,19.70
2023-02-15T13:25:22.494Z,17.52
2023-02-15T13:28:04.353Z,17.70
2023-02-15T13:30:45.451Z,24.05
2023-02-15T13:33:39.177Z,17.92
2023-02-15T13:37:05.091Z,15.77
2023-02-15T13:40:07.896Z,17.58
2023-02-15T13:42:52.176Z,15.40
2023-02-15T13:46:13.024Z,14.32
2023-02-15T13:49:19.836Z,15.70
2023-02-15T13:52:29.490Z,14.60
2023-02-15T13:55:56.292Z,15.07
2023-02-15T13:59:23.930Z,14.02
2023-02-15T14:02:12.700Z,14.77
2023-02-15T14:05:02.646Z,13.95
2023-02-15T14:08:01.800Z,14.63
2023-02-15T14:11:34.622Z,15.20
2023-02-15T14:14:47.624Z,13.05
2023-02-15T14:18:38.912Z,14.65
2023-02-15T14:21:39.886Z,14.85
2023-02-15T14:24:45.584Z,13.32
2023-02-15T14:27:46.977Z,13.82
2023-02-15T14:30:42.335Z,13.70
2023-02-15T14:33:55.715Z,13.50
2023-02-15T14:36:31.323Z,12.57
2023-02-15T14:40:14.821Z,12.43
2023-02-15T14:43:16.605Z,11.98
2023-02-15T14:46:22.409Z,10.02
2023-02-15T14:49:04.793Z,9.80
2023-02-15T14:51:44.107Z,9.57
2023-02-15T14:54:22.633Z,8.18
2023-02-15T14:57:04.466Z,8.82
2023-02-15T14:59:58.493Z,8.18
2023-02-15T15:02:53.626Z,9.23
2023-02-15T15:05:50.134Z,9.32
2023-02-15T15:08:37.383Z,8.13
2023-02-15T15:11:50.364Z,8.73
2023-02-15T15:14:35.302Z,8.65
2023-02-15T15:17:12.404Z,9.38
2023-02-15T15:19:52.036Z,9.77
2023-02-15T15:22:31.217Z,8.65
2023-02-15T15:25:33.516Z,8.48
2023-02-15T15:28:04.579Z,7.70
2023-02-15T15:30:34.503Z,7.88
2023-02-15T15:34:10.891Z,8.85
2023-02-15T15:37:30.755Z,8.77
2023-02-15T15:40:40.685Z,8.57
2023-02-15T15:44:06.844Z,8.45
2023-02-15T15:47:06.924Z,9.85
2023-02-15T15:49:41.327Z,8.57
2023-02-15T15:52:20.916Z,7.47
2023-02-15T15:55:16.798Z,8.18
2023-02-15T15:57:54.468Z,8.10
2023-02-15T16:00:43.626Z,7.87
2023-02-15T16:03:28.934Z,8.85
2023-02-15T16:06:01.399Z,8.32
2023-02-15T16:08:39.585Z,7.35
2023-02-15T16:11:32.177Z,7.47
2023-02-15T16:14:01.053Z,8.18
2023-02-15T16:16:31.981Z,8.13
2023-02-15T16:19:00.922Z,9.25
2023-02-15T16:21:38.627Z,7.30
2023-02-15T16:24:38.977Z,7.10
2023-02-15T16:27:41.889Z,9.35
2023-02-15T16:30:28.035Z,10.82
2023-02-15T16:33:17.043Z,9.75
2023-02-15T16:36:04.259Z,9.18
2023-02-15T16:38:43.395Z,9.55
2023-02-15T16:41:22.925Z,9.55
2023-02-15T16:43:59.223Z,9.40
2023-02-15T16:46:43.081Z,10.20
2023-02-15T16:49:27.199Z,10.23
2023-02-15T16:52:08.108Z,9.80
2023-02-15T16:54:38.517Z,10.57
2023-02-15T16:57:29.664Z,10.98
2023-02-15T17:00:21.685Z,10.45
2023-02-15T17:03:28.269Z,10.85
2023-02-15T17:06:02.621Z,10.32
2023-02-15T17:08:45.745Z,9.68
2023-02-15T17:11:20.109Z,9.00
2023-02-15T17:14:05.806Z,8.90
2023-02-15T17:16:59.377Z,8.73
2023-02-15T17:19:42.568Z,7.63
2023-02-15T17:22:31.914Z,8.13
2023-02-15T17:25:05.541Z,7.75
2023-02-15T17:27:36.018Z,7.90
2023-02-15T17:30:39.410Z,8.63
2023-02-15T17:33:33.879Z,8.27
2023-02-15T17:36:23.477Z,8.52
2023-02-15T17:38:59.741Z,9.30
2023-02-15T17:41:38.330Z,10.25
2023-02-15T17:46:44.784Z,9.48
2023-02-15T17:49:34.895Z,9.60
2023-02-15T17:52:05.376Z,10.20
2023-02-15T17:54:54.124Z,11.18
2023-02-15T17:57:24.166Z,10.52
2023-02-15T18:00:12.843Z,12.75
2023-02-15T18:03:02.842Z,11.27
2023-02-15T18:05:51.720Z,11.55
2023-02-15T18:08:46.890Z,10.93
2023-02-15T18:11:35.697Z,12.13
2023-02-15T18:14:10.405Z,13.20
2023-02-15T18:16:45.836Z,12.65
2023-02-15T18:19:27.278Z,12.35
2023-02-15T18:21:57.838Z,12.35
2023-02-15T18:24:27.559Z,12.63
2023-02-15T18:26:55.987Z,13.57
2023-02-15T18:29:24.320Z,12.55
2023-02-15T18:31:58.206Z,13.43
2023-02-15T18:34:39.737Z,12.35
2023-02-15T18:37:33.673Z,12.85
2023-02-15T18:40:04.393Z,12.52
2023-02-15T18:42:36.274Z,13.35
2023-02-15T18:45:32.987Z,14.50
2023-02-15T18:48:03.517Z,14.68
2023-02-15T18:50:36.823Z,14.25
2023-02-15T18:53:20.548Z,16.90
2023-02-15T18:55:49.736Z,15.75
2023-02-15T18:58:24.746Z,16.38
2023-02-15T19:00:55.097Z,15.55
2023-02-15T19:03:25.162Z,16.52
2023-02-15T19:05:55.093Z,17.05
2023-02-15T19:08:24.901Z,18.35
2023-02-15T19:10:55.595Z,17.60
2023-02-15T19:13:25.630Z,17.95
2023-02-15T19:15:55.823Z,16.60
2023-02-15T19:18:26.489Z,15.18
2023-02-15T19:20:56.592Z,15.68
2023-02-15T19:23:27.012Z,15.18
2023-02-15T19:25:57.155Z,16.90
2023-02-15T19:28:34.643Z,13.15
2023-02-15T19:31:04.227Z,12.65
2023-02-15T19:33:34.821Z,11.15
2023-02-15T19:36:17.510Z,11.98
2023-02-15T19:38:54.607Z,11.13
2023-02-15T19:41:34.460Z,10.55
2023-02-15T19:44:04.038Z,11.02
2023-02-15T19:46:31.759Z,12.00
2023-02-15T19:49:00.152Z,13.00
2023-02-15T19:51:28.532Z,11.82
2023-02-15T19:53:57.856Z,12.77
2023-02-15T19:56:27.038Z,13.80
2023-02-15T19:58:57.827Z,12.45
2023-02-15T20:01:25.588Z,14.25
2023-02-15T20:03:54.623Z,13.63
2023-02-15T20:06:22.048Z,13.25
2023-02-15T20:08:51.139Z,14.57
2023-02-15T20:11:18.742Z,14.30
2023-02-15T20:13:47.119Z,15.00
2023-02-15T20:16:15.661Z,14.10
2023-02-15T20:18:46.517Z,15.20
2023-02-15T20:21:19.705Z,15.93
2023-02-15T20:23:48.822Z,15.90
2023-02-15T20:26:29.781Z,16.33
2023-02-15T20:29:00.853Z,17.40
2023-02-15T20:31:31.068Z,17.05
2023-02-15T20:34:01.364Z,17.55
2023-02-15T20:36:31.821Z,18.25
2023-02-15T20:39:17.492Z,16.60
2023-02-15T20:41:48.003Z,16.88
2023-02-15T20:44:31.893Z,16.83
2023-02-15T20:47:02.806Z,16.63
2023-02-15T20:49:32.532Z,15.98
2023-02-15T20:52:12.576Z,16.55
2023-02-15T20:54:42.762Z,16.17
2023-02-15T20:57:13.332Z,17.48
2023-02-15T20:59:42.457Z,16.73
2023-02-15T21:02:23.962Z,17.48
2023-02-15T21:04:55.527Z,17.73
2023-02-15T21:07:23.934Z,18.15
2023-02-15T21:09:54.340Z,17.77
2023-02-15T21:12:25.418Z,18.52
2023-02-15T21:14:55.207Z,18.52
2023-02-15T21:17:24.973Z,17.48
2023-02-15T21:19:54.799Z,16.77
2023-02-15T21:22:24.870Z,15.93
2023-02-15T21:24:55.167Z,15.88
2023-02-15T21:27:25.188Z,14.85
2023-02-15T21:29:53.722Z,15.70
2023-02-15T21:32:22.217Z,16.30
2023-02-15T21:34:50.596Z,15.20
2023-02-15T21:37:36.616Z,15.60
2023-02-15T21:40:07.091Z,14.02
2023-02-15T21:42:55.585Z,15.77
2023-02-15T21:45:43.976Z,13.83
2023-02-15T21:48:14.632Z,15.40
2023-02-15T21:51:03.208Z,16.55
2023-02-15T21:53:42.640Z,15.32
2023-02-15T21:56:21.977Z,16.70
2023-02-15T21:58:50.267Z,15.98
2023-02-15T22:01:28.530Z,17.17
2023-02-15T22:03:59.756Z,16.52
2023-02-15T22:06:29.487Z,16.27
2023-02-15T22:08:59.257Z,16.75
2023-02-15T22:11:30.116Z,16.90
2023-02-15T22:14:00.266Z,15.05
2023-02-15T22:16:31.031Z,16.85
2023-02-15T22:19:00.791Z,16.17
2023-02-15T22:21:31.508Z,14.63
2023-02-15T22:24:01.508Z,16.92
2023-02-15T22:26:31.319Z,14.90
2023-02-15T22:29:01.012Z,15.05
2023-02-15T22:31:30.944Z,15.38
2023-02-15T22:34:01.103Z,13.50
2023-02-15T22:36:31.272Z,15.23
2023-02-15T22:39:01.296Z,14.32
2023-02-15T22:41:31.923Z,14.10
2023-02-15T22:44:00.285Z,13.27
2023-02-15T22:46:30.112Z,14.32
2023-02-15T22:48:57.310Z,14.05
2023-02-15T22:51:27.079Z,14.10
2023-02-15T22:53:55.682Z,13.32
2023-02-15T22:56:49.012Z,13.50
2023-02-15T22:59:30.059Z,13.75
2023-02-15T23:01:58.830Z,13.93
2023-02-15T23:04:29.990Z,12.85
2023-02-15T23:07:01.030Z,13.82
2023-02-15T23:09:31.066Z,13.05
2023-02-15T23:12:00.751Z,14.25
2023-02-15T23:14:36.805Z,15.60
2023-02-15T23:17:06.804Z,14.68
2023-02-15T23:19:36.750Z,14.25
2023-02-15T23:22:18.352Z,13.77
2023-02-15T23:24:53.521Z,14.30
2023-02-15T23:27:41.319Z,14.95
2023-02-15T23:30:16.443Z,14.77
2023-02-15T23:32:45.482Z,14.40
2023-02-15T23:35:20.057Z,15.18
2023-02-15T23:37:48.947Z,14.82
2023-02-15T23:40:40.508Z,15.27
2023-02-15T23:43:22.771Z,14.73
2023-02-15T23:45:52.758Z,13.90
2023-02-15T23:48:38.546Z,13.98
2023-02-15T23:51:11.436Z,12.18
2023-02-15T23:53:39.916Z,12.75
2023-02-15T23:56:14.693Z,14.48
2023-02-15T23:58:47.235Z,13.88
